sensor_id;sensor_type;location;lat;lon;timestamp;pressure;altitude;pressure_sealevel;temperature;humidity
929;BME280;451;47.988;7.842;2023-05-21T00:02:15;97962.72;;;17.14;99.41
929;BME280;451;47.988;7.842;2023-05-21T00:11:20;98013.88;;;16.91;100.00
929;BME280;451;47.988;7.842;2023-05-21T00:20:23;97998.22;;;17.19;100.00
929;BME280;451;47.988;7.842;2023-05-21T00:29:28;97990.88;;;17.33;100.00
929;BME280;451;47.988;7.842;2023-05-21T00:38:31;98037.09;;;17.80;96.98
929;BME280;451;47.988;7.842;2023-05-21T00:47:36;98016.47;;;16.98;100.00
929;BME280;451;47.988;7.842;2023-05-21T00:56:40;98007.22;;;16.82;100.00
929;BME280;451;47.988;7.842;2023-05-21T01:05:45;98003.13;;;16.68;100.00
929;BME280;451;47.988;7.842;2023-05-21T01:14:50;97997.72;;;16.74;100.00
929;BME280;451;47.988;7.842;2023-05-21T01:23:55;98019.34;;;16.96;100.00
929;BME280;451;47.988;7.842;2023-05-21T01:33:02;97978.16;;;16.87;100.00
929;BME280;451;47.988;7.842;2023-05-21T01:42:09;97992.94;;;16.65;100.00
929;BME280;451;47.988;7.842;2023-05-21T01:51:13;97991.31;;;16.64;100.00
929;BME280;451;47.988;7.842;2023-05-21T02:00:18;97983.94;;;15.98;100.00
929;BME280;451;47.988;7.842;2023-05-21T02:09:21;97965.66;;;15.90;100.00
929;BME280;451;47.988;7.842;2023-05-21T02:18:26;97956.91;;;15.51;100.00
929;BME280;451;47.988;7.842;2023-05-21T02:27:29;97970.13;;;15.64;100.00
929;BME280;451;47.988;7.842;2023-05-21T02:36:34;97961.03;;;15.47;100.00
929;BME280;451;47.988;7.842;2023-05-21T02:45:38;97973.34;;;15.35;100.00
929;BME280;451;47.988;7.842;2023-05-21T02:54:42;97915.72;;;14.92;100.00
929;BME280;451;47.988;7.842;2023-05-21T03:03:45;97963.59;;;15.29;100.00
929;BME280;451;47.988;7.842;2023-05-21T03:12:50;97971.00;;;15.14;100.00
929;BME280;451;47.988;7.842;2023-05-21T03:21:55;97981.16;;;15.23;100.00
929;BME280;451;47.988;7.842;2023-05-21T03:31:00;97984.16;;;14.82;100.00
929;BME280;451;47.988;7.842;2023-05-21T03:40:38;97949.25;;;14.34;100.00
929;BME280;451;47.988;7.842;2023-05-21T03:49:43;97983.84;;;14.52;100.00
929;BME280;451;47.988;7.842;2023-05-21T03:58:47;98011.31;;;14.51;100.00
929;BME280;451;47.988;7.842;2023-05-21T04:07:51;98020.06;;;14.39;100.00
929;BME280;451;47.988;7.842;2023-05-21T04:16:55;98032.06;;;14.35;100.00
929;BME280;451;47.988;7.842;2023-05-21T04:25:59;98027.38;;;14.43;100.00
929;BME280;451;47.988;7.842;2023-05-21T04:35:05;98009.91;;;14.49;100.00
929;BME280;451;47.988;7.842;2023-05-21T04:44:09;98050.94;;;14.84;100.00
929;BME280;451;47.988;7.842;2023-05-21T04:53:17;97888.31;;;14.09;100.00
929;BME280;451;47.988;7.842;2023-05-21T05:02:22;98054.88;;;15.20;100.00
929;BME280;451;47.988;7.842;2023-05-21T05:11:25;98050.19;;;15.22;100.00
929;BME280;451;47.988;7.842;2023-05-21T05:20:29;98005.63;;;15.12;100.00
929;BME280;451;47.988;7.842;2023-05-21T05:29:32;98045.38;;;15.88;100.00
929;BME280;451;47.988;7.842;2023-05-21T05:38:37;98039.53;;;16.61;100.00
929;BME280;451;47.988;7.842;2023-05-21T05:47:42;98017.09;;;16.32;100.00
929;BME280;451;47.988;7.842;2023-05-21T05:56:47;98015.50;;;17.10;100.00
929;BME280;451;47.988;7.842;2023-05-21T06:05:51;98029.94;;;17.32;100.00
929;BME280;451;47.988;7.842;2023-05-21T06:14:56;98037.75;;;18.17;97.73
929;BME280;451;47.988;7.842;2023-05-21T06:23:59;97958.22;;;17.74;94.67
929;BME280;451;47.988;7.842;2023-05-21T06:33:05;98036.00;;;19.16;88.85
929;BME280;451;47.988;7.842;2023-05-21T06:42:10;98036.69;;;19.23;86.70
929;BME280;451;47.988;7.842;2023-05-21T06:51:32;98023.06;;;19.48;86.03
929;BME280;451;47.988;7.842;2023-05-21T07:00:35;98020.09;;;18.58;90.54
929;BME280;451;47.988;7.842;2023-05-21T07:09:40;98041.75;;;19.36;86.75
929;BME280;451;47.988;7.842;2023-05-21T07:18:44;98042.97;;;18.93;90.32
929;BME280;451;47.988;7.842;2023-05-21T07:27:49;98024.91;;;18.96;88.00
929;BME280;451;47.988;7.842;2023-05-21T07:36:52;98024.81;;;18.90;89.07
929;BME280;451;47.988;7.842;2023-05-21T07:45:58;98013.72;;;20.24;83.01
929;BME280;451;47.988;7.842;2023-05-21T07:55:03;98018.41;;;19.43;85.28
929;BME280;451;47.988;7.842;2023-05-21T08:04:11;98027.50;;;19.70;85.24
929;BME280;451;47.988;7.842;2023-05-21T08:13:16;98028.06;;;20.34;83.43
929;BME280;451;47.988;7.842;2023-05-21T08:22:22;97865.16;;;19.62;81.71
929;BME280;451;47.988;7.842;2023-05-21T08:31:25;98019.16;;;20.84;79.03
929;BME280;451;47.988;7.842;2023-05-21T08:40:31;98004.06;;;21.60;76.79
929;BME280;451;47.988;7.842;2023-05-21T08:49:34;98019.75;;;20.86;79.22
929;BME280;451;47.988;7.842;2023-05-21T08:58:40;98007.81;;;22.18;73.46
929;BME280;451;47.988;7.842;2023-05-21T09:07:46;97988.19;;;23.48;66.47
929;BME280;451;47.988;7.842;2023-05-21T09:17:04;98009.41;;;26.00;58.74
929;BME280;451;47.988;7.842;2023-05-21T09:26:09;97999.84;;;26.52;55.56
929;BME280;451;47.988;7.842;2023-05-21T09:35:16;98006.16;;;26.66;56.80
929;BME280;451;47.988;7.842;2023-05-21T09:44:19;98002.13;;;26.00;58.13
929;BME280;451;47.988;7.842;2023-05-21T09:53:23;98003.63;;;26.17;58.11
929;BME280;451;47.988;7.842;2023-05-21T10:02:27;97992.69;;;26.37;57.21
929;BME280;451;47.988;7.842;2023-05-21T10:11:33;97990.47;;;26.10;57.75
929;BME280;451;47.988;7.842;2023-05-21T10:20:37;97956.28;;;24.07;62.63
929;BME280;451;47.988;7.842;2023-05-21T10:29:43;97978.69;;;25.62;59.41
929;BME280;451;47.988;7.842;2023-05-21T10:38:47;97958.31;;;25.90;57.00
929;BME280;451;47.988;7.842;2023-05-21T10:48:07;97946.16;;;25.92;57.94
929;BME280;451;47.988;7.842;2023-05-21T10:57:25;97962.81;;;26.33;57.45
929;BME280;451;47.988;7.842;2023-05-21T11:06:35;97948.00;;;27.26;55.03
929;BME280;451;47.988;7.842;2023-05-21T11:16:06;97954.72;;;27.85;53.66
929;BME280;451;47.988;7.842;2023-05-21T11:25:17;97948.06;;;27.40;55.08
929;BME280;451;47.988;7.842;2023-05-21T11:34:22;97947.94;;;25.73;59.93
929;BME280;451;47.988;7.842;2023-05-21T11:43:30;97939.00;;;25.78;62.17
929;BME280;451;47.988;7.842;2023-05-21T11:52:33;97939.00;;;27.54;56.02
929;BME280;451;47.988;7.842;2023-05-21T12:01:37;97949.69;;;27.78;54.71
929;BME280;451;47.988;7.842;2023-05-21T12:10:41;97915.63;;;25.73;60.58
929;BME280;451;47.988;7.842;2023-05-21T12:19:45;97927.94;;;28.02;54.77
929;BME280;451;47.988;7.842;2023-05-21T12:28:49;97949.84;;;26.35;58.35
929;BME280;451;47.988;7.842;2023-05-21T12:37:53;97948.00;;;26.31;58.64
929;BME280;451;47.988;7.842;2023-05-21T12:46:57;97946.03;;;26.89;57.14
929;BME280;451;47.988;7.842;2023-05-21T12:56:08;97978.69;;;27.11;56.76
929;BME280;451;47.988;7.842;2023-05-21T13:05:15;97987.09;;;27.10;55.87
929;BME280;451;47.988;7.842;2023-05-21T13:14:20;97973.63;;;26.57;57.68
929;BME280;451;47.988;7.842;2023-05-21T13:23:23;97969.06;;;25.46;61.26
929;BME280;451;47.988;7.842;2023-05-21T13:32:27;97957.31;;;25.31;62.07
929;BME280;451;47.988;7.842;2023-05-21T13:41:31;97957.06;;;25.77;59.99
929;BME280;451;47.988;7.842;2023-05-21T13:50:35;97882.56;;;24.64;62.48
929;BME280;451;47.988;7.842;2023-05-21T13:59:38;97915.31;;;25.36;60.10
929;BME280;451;47.988;7.842;2023-05-21T14:08:43;97879.59;;;25.20;60.37
929;BME280;451;47.988;7.842;2023-05-21T14:17:46;97924.84;;;25.62;60.23
929;BME280;451;47.988;7.842;2023-05-21T14:26:50;97882.81;;;25.66;59.89
929;BME280;451;47.988;7.842;2023-05-21T14:35:53;97916.09;;;25.41;61.25
929;BME280;451;47.988;7.842;2023-05-21T14:44:58;97920.47;;;26.34;57.43
929;BME280;451;47.988;7.842;2023-05-21T14:54:01;97926.09;;;27.84;54.11
929;BME280;451;47.988;7.842;2023-05-21T15:03:05;97885.69;;;28.66;50.80
929;BME280;451;47.988;7.842;2023-05-21T15:12:08;97935.41;;;28.10;53.18
929;BME280;451;47.988;7.842;2023-05-21T15:21:12;97917.91;;;27.14;54.20
929;BME280;451;47.988;7.842;2023-05-21T15:30:16;97911.63;;;26.28;56.84
929;BME280;451;47.988;7.842;2023-05-21T15:39:20;97923.16;;;27.24;55.07
929;BME280;451;47.988;7.842;2023-05-21T15:48:24;97963.69;;;26.24;58.21
929;BME280;451;47.988;7.842;2023-05-21T15:57:29;97976.16;;;25.31;60.42
929;BME280;451;47.988;7.842;2023-05-21T16:06:32;98009.75;;;24.14;65.21
929;BME280;451;47.988;7.842;2023-05-21T16:15:36;97820.22;;;19.04;100.00
929;BME280;451;47.988;7.842;2023-05-21T16:24:39;98000.84;;;18.21;100.00
929;BME280;451;47.988;7.842;2023-05-21T16:33:44;98003.53;;;18.56;100.00
929;BME280;451;47.988;7.842;2023-05-21T16:42:47;98032.66;;;18.04;100.00
929;BME280;451;47.988;7.842;2023-05-21T16:51:51;97847.97;;;16.64;100.00
929;BME280;451;47.988;7.842;2023-05-21T17:00:55;98020.44;;;17.73;100.00
929;BME280;451;47.988;7.842;2023-05-21T17:09:59;98012.47;;;17.55;100.00
929;BME280;451;47.988;7.842;2023-05-21T17:19:04;98011.75;;;17.48;100.00
929;BME280;451;47.988;7.842;2023-05-21T17:28:09;97991.00;;;17.38;100.00
929;BME280;451;47.988;7.842;2023-05-21T17:37:12;97979.09;;;17.29;100.00
929;BME280;451;47.988;7.842;2023-05-21T17:46:19;97925.41;;;17.09;100.00
929;BME280;451;47.988;7.842;2023-05-21T17:55:22;98003.09;;;17.52;100.00
929;BME280;451;47.988;7.842;2023-05-21T18:04:26;97968.84;;;17.74;100.00
929;BME280;451;47.988;7.842;2023-05-21T18:13:30;98001.22;;;17.41;100.00
929;BME280;451;47.988;7.842;2023-05-21T18:22:34;97974.38;;;17.13;100.00
929;BME280;451;47.988;7.842;2023-05-21T18:31:38;97983.47;;;17.23;100.00
929;BME280;451;47.988;7.842;2023-05-21T18:40:42;97953.19;;;17.24;100.00
929;BME280;451;47.988;7.842;2023-05-21T18:49:45;97987.53;;;17.38;100.00
929;BME280;451;47.988;7.842;2023-05-21T18:58:50;98013.63;;;17.29;100.00
929;BME280;451;47.988;7.842;2023-05-21T19:07:53;98021.56;;;17.17;100.00
929;BME280;451;47.988;7.842;2023-05-21T19:16:57;98023.44;;;17.28;100.00
929;BME280;451;47.988;7.842;2023-05-21T19:26:00;98009.16;;;16.93;100.00
929;BME280;451;47.988;7.842;2023-05-21T19:35:06;98057.75;;;16.93;100.00
929;BME280;451;47.988;7.842;2023-05-21T19:44:09;98052.94;;;16.66;100.00
929;BME280;451;47.988;7.842;2023-05-21T19:53:13;98075.88;;;16.60;100.00
929;BME280;451;47.988;7.842;2023-05-21T20:02:16;98091.63;;;16.55;100.00
929;BME280;451;47.988;7.842;2023-05-21T20:11:21;98085.09;;;16.51;100.00
929;BME280;451;47.988;7.842;2023-05-21T20:20:24;98083.97;;;16.40;100.00
929;BME280;451;47.988;7.842;2023-05-21T20:29:29;98084.63;;;16.11;100.00
929;BME280;451;47.988;7.842;2023-05-21T20:38:32;98089.00;;;16.24;100.00
929;BME280;451;47.988;7.842;2023-05-21T20:47:39;98082.97;;;16.10;100.00
929;BME280;451;47.988;7.842;2023-05-21T20:56:43;98066.63;;;15.82;100.00
929;BME280;451;47.988;7.842;2023-05-21T21:05:47;98093.75;;;15.84;100.00
929;BME280;451;47.988;7.842;2023-05-21T21:14:50;98078.38;;;15.61;100.00
929;BME280;451;47.988;7.842;2023-05-21T21:23:54;98099.81;;;15.91;100.00
929;BME280;451;47.988;7.842;2023-05-21T21:32:58;98041.34;;;15.41;100.00
929;BME280;451;47.988;7.842;2023-05-21T21:42:02;98090.06;;;15.85;100.00
929;BME280;451;47.988;7.842;2023-05-21T21:51:05;98106.41;;;15.82;100.00
929;BME280;451;47.988;7.842;2023-05-21T22:00:11;98087.06;;;16.06;100.00
929;BME280;451;47.988;7.842;2023-05-21T22:09:20;98108.72;;;16.03;100.00
929;BME280;451;47.988;7.842;2023-05-21T22:18:25;98099.91;;;15.78;100.00
929;BME280;451;47.988;7.842;2023-05-21T22:27:28;98100.00;;;15.96;100.00
929;BME280;451;47.988;7.842;2023-05-21T22:36:33;98132.94;;;16.69;100.00
929;BME280;451;47.988;7.842;2023-05-21T22:45:39;98079.72;;;16.08;100.00
929;BME280;451;47.988;7.842;2023-05-21T22:54:44;98167.31;;;16.89;100.00
929;BME280;451;47.988;7.842;2023-05-21T23:03:47;98153.72;;;16.47;100.00
929;BME280;451;47.988;7.842;2023-05-21T23:12:51;98138.34;;;16.25;100.00
929;BME280;451;47.988;7.842;2023-05-21T23:21:54;98129.53;;;15.99;100.00
929;BME280;451;47.988;7.842;2023-05-21T23:30:59;98156.28;;;15.98;100.00
929;BME280;451;47.988;7.842;2023-05-21T23:40:02;98146.78;;;15.84;100.00
929;BME280;451;47.988;7.842;2023-05-21T23:49:07;98163.06;;;15.87;100.00
929;BME280;451;47.988;7.842;2023-05-21T23:58:10;98102.94;;;15.30;100.00
